createdAt,value
2018-02-08T00:01:47.796Z,99.90
2018-02-08T00:04:16.861Z,99.90
2018-02-08T00:06:46.611Z,99.90
2018-02-08T00:09:16.012Z,99.90
2018-02-08T00:11:44.956Z,99.90
2018-02-08T00:14:13.955Z,99.90
2018-02-08T00:16:43.326Z,99.90
2018-02-08T00:19:12.549Z,99.90
2018-02-08T00:21:42.344Z,99.90
2018-02-08T00:24:11.309Z,99.90
2018-02-08T00:26:40.288Z,99.90
2018-02-08T00:29:09.309Z,99.90
2018-02-08T00:31:38.272Z,99.90
2018-02-08T00:34:08.692Z,99.90
2018-02-08T00:36:39.911Z,99.90
2018-02-08T00:39:09.584Z,99.90
2018-02-08T00:41:38.578Z,99.90
2018-02-08T00:44:07.560Z,99.90
2018-02-08T00:46:37.354Z,99.90
2018-02-08T00:49:06.318Z,99.90
2018-02-08T00:51:35.297Z,99.90
2018-02-08T00:54:04.657Z,99.90
2018-02-08T00:56:33.617Z,99.90
2018-02-08T00:59:02.685Z,99.90
2018-02-08T01:01:33.172Z,99.90
2018-02-08T01:04:02.556Z,99.90
2018-02-08T01:06:31.502Z,99.90
2018-02-08T01:09:01.293Z,99.90
2018-02-08T01:11:31.405Z,99.90
2018-02-08T01:14:00.329Z,99.90
2018-02-08T01:16:30.086Z,99.90
2018-02-08T01:18:59.058Z,99.90
2018-02-08T01:21:28.416Z,99.90
2018-02-08T01:23:57.412Z,99.90
2018-02-08T01:26:27.337Z,99.90
2018-02-08T01:28:56.319Z,99.90
2018-02-08T01:31:25.309Z,99.90
2018-02-08T01:33:54.269Z,99.90
2018-02-08T01:36:23.244Z,99.90
2018-02-08T01:38:52.992Z,99.90
2018-02-08T01:41:22.010Z,99.90
2018-02-08T01:43:51.790Z,99.90
2018-02-08T01:46:20.849Z,99.90
2018-02-08T01:48:50.196Z,99.90
2018-02-08T01:51:20.017Z,99.90
2018-02-08T01:53:49.002Z,99.90
2018-02-08T01:56:17.957Z,99.90
2018-02-08T01:58:46.991Z,99.90
2018-02-08T02:01:15.938Z,99.90
2018-02-08T02:03:44.889Z,99.90
2018-02-08T02:06:14.648Z,99.90
2018-02-08T02:08:43.624Z,99.90
2018-02-08T02:11:12.787Z,99.90
2018-02-08T02:13:42.517Z,99.90
2018-02-08T02:16:11.573Z,99.90
2018-02-08T02:18:40.625Z,99.90
2018-02-08T02:21:09.574Z,99.90
2018-02-08T02:23:39.314Z,99.90
2018-02-08T02:26:08.289Z,99.90
2018-02-08T02:28:37.373Z,99.90
2018-02-08T02:31:06.314Z,99.90
2018-02-08T02:33:35.665Z,99.90
2018-02-08T02:36:05.396Z,99.90
2018-02-08T02:38:34.395Z,99.90
2018-02-08T02:41:03.420Z,99.90
2018-02-08T02:43:33.169Z,99.90
2018-02-08T02:46:03.079Z,99.90
2018-02-08T02:48:32.812Z,99.90
2018-02-08T02:51:01.796Z,99.90
2018-02-08T02:53:30.761Z,99.90
2018-02-08T02:55:59.769Z,99.90
2018-02-08T02:58:28.730Z,99.90
2018-02-08T03:00:57.689Z,99.90
2018-02-08T03:03:26.713Z,99.90
2018-02-08T03:05:55.674Z,99.90
2018-02-08T03:08:24.681Z,99.90
2018-02-08T03:10:53.626Z,99.90
2018-02-08T03:13:23.434Z,99.90
2018-02-08T03:15:52.446Z,99.90
2018-02-08T03:18:21.808Z,99.90
2018-02-08T03:20:50.792Z,99.90
2018-02-08T03:23:19.775Z,99.90
2018-02-08T03:25:48.860Z,99.90
2018-02-08T03:28:17.846Z,99.90
2018-02-08T03:31:04.609Z,99.90
2018-02-08T03:33:34.320Z,99.90
2018-02-08T03:36:04.201Z,99.90
2018-02-08T03:38:33.172Z,99.90
2018-02-08T03:41:02.578Z,99.90
2018-02-08T03:43:31.532Z,99.90
2018-02-08T03:46:00.647Z,99.90
2018-02-08T03:48:29.591Z,99.90
2018-02-08T03:50:59.419Z,99.90
2018-02-08T03:53:28.353Z,99.90
2018-02-08T03:55:57.343Z,99.90
2018-02-08T03:58:26.289Z,99.90
2018-02-08T04:00:56.049Z,99.90
2018-02-08T04:03:25.000Z,99.90
2018-02-08T04:05:54.750Z,99.90
2018-02-08T04:08:23.733Z,99.90
2018-02-08T04:10:52.693Z,99.90
2018-02-08T04:13:22.489Z,99.90
2018-02-08T04:15:52.260Z,99.90
2018-02-08T04:18:21.265Z,99.90
2018-02-08T04:20:50.237Z,99.90
2018-02-08T04:23:19.617Z,99.90
2018-02-08T04:25:49.327Z,99.90
2018-02-08T04:28:18.355Z,99.90
2018-02-08T04:30:47.302Z,99.90
2018-02-08T04:33:16.281Z,99.90
2018-02-08T04:35:46.044Z,99.90
2018-02-08T04:38:17.974Z,99.90
2018-02-08T04:40:58.970Z,99.90
2018-02-08T04:43:39.949Z,99.90
2018-02-08T04:46:21.220Z,99.90
2018-02-08T04:48:50.192Z,99.90
2018-02-08T04:51:19.158Z,99.90
2018-02-08T04:53:48.229Z,99.90
2018-02-08T04:56:17.242Z,99.90
2018-02-08T04:58:46.956Z,99.90
2018-02-08T05:01:16.703Z,99.90
2018-02-08T05:03:45.697Z,99.90
2018-02-08T05:06:14.683Z,99.90
2018-02-08T05:08:43.627Z,99.90
2018-02-08T05:11:12.592Z,99.90
2018-02-08T05:13:41.681Z,99.90
2018-02-08T05:16:10.647Z,99.90
2018-02-08T05:18:40.017Z,99.90
2018-02-08T05:21:09.028Z,99.90
2018-02-08T05:23:38.767Z,99.90
2018-02-08T05:26:07.721Z,99.90
2018-02-08T05:28:37.491Z,99.90
2018-02-08T05:31:06.629Z,99.90
2018-02-08T05:33:36.747Z,99.90
2018-02-08T05:36:06.557Z,99.90
2018-02-08T05:38:35.624Z,99.90
2018-02-08T05:41:04.989Z,99.90
2018-02-08T05:43:33.990Z,99.90
2018-02-08T05:46:03.041Z,99.90
2018-02-08T05:48:31.983Z,99.90
2018-02-08T05:51:00.991Z,99.90
2018-02-08T05:53:29.987Z,99.90
2018-02-08T05:55:58.941Z,99.90
2018-02-08T05:58:27.987Z,99.90
2018-02-08T06:00:57.366Z,99.90
2018-02-08T06:03:26.319Z,99.90
2018-02-08T06:05:55.305Z,99.90
2018-02-08T06:08:25.065Z,99.90
2018-02-08T06:10:54.807Z,99.90
2018-02-08T06:13:23.788Z,99.90
2018-02-08T06:15:52.808Z,99.90
2018-02-08T06:18:21.758Z,99.90
2018-02-08T06:20:50.815Z,99.90
2018-02-08T06:23:19.825Z,99.90
2018-02-08T06:25:49.190Z,99.90
2018-02-08T06:28:18.177Z,99.90
2018-02-08T06:30:47.918Z,99.90
2018-02-08T06:33:18.094Z,99.90
2018-02-08T06:35:47.835Z,99.90
2018-02-08T06:38:16.924Z,99.90
2018-02-08T06:40:45.875Z,99.90
2018-02-08T06:43:14.892Z,99.90
2018-02-08T06:45:43.823Z,99.90
2018-02-08T06:48:13.257Z,99.90
2018-02-08T06:50:42.254Z,99.90
2018-02-08T06:53:11.632Z,99.90
2018-02-08T06:55:40.767Z,99.90
2018-02-08T06:58:10.112Z,99.90
2018-02-08T07:00:39.525Z,99.90
2018-02-08T07:03:08.540Z,99.90
2018-02-08T07:05:37.557Z,99.90
2018-02-08T07:08:08.754Z,99.90
2018-02-08T07:10:37.762Z,99.90
2018-02-08T07:13:06.972Z,99.90
2018-02-08T07:15:37.156Z,99.90
2018-02-08T07:18:06.888Z,99.90
2018-02-08T07:20:37.409Z,99.90
2018-02-08T07:23:06.380Z,99.90
2018-02-08T07:25:39.683Z,99.90
2018-02-08T07:28:09.410Z,99.90
2018-02-08T07:30:39.534Z,99.90
2018-02-08T07:33:08.568Z,99.90
2018-02-08T07:35:38.885Z,99.90
2018-02-08T07:38:09.433Z,99.90
2018-02-08T07:40:38.776Z,99.90
2018-02-08T07:43:07.831Z,99.90
2018-02-08T07:45:38.078Z,99.90
2018-02-08T07:48:08.714Z,99.90
2018-02-08T07:50:39.043Z,99.90
2018-02-08T07:53:09.578Z,99.90
2018-02-08T07:55:38.706Z,99.90
2018-02-08T07:58:08.532Z,99.90
2018-02-08T08:00:37.532Z,99.90
2018-02-08T08:03:06.963Z,99.90
2018-02-08T08:05:36.313Z,99.90
2018-02-08T08:08:07.036Z,99.90
2018-02-08T08:10:36.791Z,99.90
2018-02-08T08:13:08.073Z,99.90
2018-02-08T08:15:39.052Z,99.90
2018-02-08T08:18:10.168Z,99.90
2018-02-08T08:20:40.104Z,99.90
2018-02-08T08:23:09.877Z,99.90
2018-02-08T08:25:38.890Z,99.90
2018-02-08T08:28:07.902Z,99.90
2018-02-08T08:30:37.650Z,99.90
2018-02-08T08:33:06.976Z,99.90
2018-02-08T08:35:35.958Z,99.90
2018-02-08T08:38:04.966Z,99.90
2018-02-08T08:40:33.899Z,99.90
2018-02-08T08:43:03.665Z,99.90
2018-02-08T08:45:33.461Z,99.90
2018-02-08T08:48:02.906Z,99.90
2018-02-08T08:50:31.985Z,99.90
2018-02-08T08:53:01.637Z,99.90
2018-02-08T08:55:31.380Z,99.90
2018-02-08T08:58:00.343Z,99.90
2018-02-08T09:00:32.313Z,99.90
2018-02-08T09:03:01.304Z,99.90
2018-02-08T09:05:31.069Z,99.90
2018-02-08T09:08:00.048Z,99.90
2018-02-08T09:10:29.000Z,99.90
2018-02-08T09:12:57.938Z,99.90
2018-02-08T09:15:27.681Z,99.90
2018-02-08T09:17:56.754Z,99.90
2018-02-08T09:20:25.704Z,99.90
2018-02-08T09:22:54.707Z,99.90
2018-02-08T09:25:23.671Z,99.90
2018-02-08T09:27:52.617Z,99.90
2018-02-08T09:30:22.389Z,99.90
2018-02-08T09:32:51.426Z,99.90
2018-02-08T09:35:20.384Z,99.90
2018-02-08T09:37:50.146Z,99.90
2018-02-08T09:40:19.122Z,99.90
2018-02-08T09:42:48.520Z,99.90
2018-02-08T09:45:18.231Z,99.90
2018-02-08T09:47:47.971Z,99.90
2018-02-08T09:50:16.952Z,99.90
2018-02-08T09:52:45.925Z,99.90
2018-02-08T09:55:15.632Z,99.90
2018-02-08T09:57:45.345Z,99.90
2018-02-08T10:00:15.233Z,99.90
2018-02-08T10:02:44.475Z,99.90
2018-02-08T10:05:13.424Z,99.90
2018-02-08T10:07:42.378Z,99.90
2018-02-08T10:10:11.351Z,99.90
2018-02-08T10:12:40.340Z,99.90
2018-02-08T10:15:09.770Z,99.90
2018-02-08T10:17:38.919Z,99.90
2018-02-08T10:20:08.682Z,99.90
2018-02-08T10:22:37.697Z,99.90
2018-02-08T10:25:08.185Z,99.90
2018-02-08T10:27:38.328Z,99.90
2018-02-08T10:30:07.713Z,99.90
2018-02-08T10:32:36.695Z,99.90
2018-02-08T10:35:10.855Z,99.90
2018-02-08T10:37:40.521Z,99.90
2018-02-08T10:40:10.312Z,99.90
2018-02-08T10:42:40.058Z,99.90
2018-02-08T10:45:09.417Z,99.90
2018-02-08T10:47:39.143Z,99.90
2018-02-08T10:50:08.525Z,99.90
2018-02-08T10:52:38.305Z,99.90
2018-02-08T10:55:07.262Z,99.90
2018-02-08T10:57:37.444Z,99.90
2018-02-08T11:00:07.284Z,99.90
2018-02-08T11:02:36.249Z,99.90
2018-02-08T11:05:06.002Z,99.90
2018-02-08T11:07:35.768Z,99.90
2018-02-08T11:10:04.711Z,99.90
2018-02-08T11:12:33.715Z,99.90
2018-02-08T11:15:03.807Z,99.90
2018-02-08T11:17:33.192Z,99.90
2018-02-08T11:20:02.154Z,99.90
2018-02-08T11:22:31.907Z,99.90
2018-02-08T11:25:00.900Z,99.90
2018-02-08T11:27:29.857Z,99.90
2018-02-08T11:29:59.591Z,99.90
2018-02-08T11:32:28.560Z,99.90
2018-02-08T11:34:58.385Z,99.90
2018-02-08T11:37:27.406Z,99.90
2018-02-08T11:39:57.083Z,99.90
2018-02-08T11:42:26.033Z,99.90
2018-02-08T11:44:55.417Z,99.90
2018-02-08T11:47:24.540Z,99.90
2018-02-08T11:49:53.897Z,99.90
2018-02-08T11:52:22.964Z,99.90
2018-02-08T11:54:52.717Z,99.90
2018-02-08T11:57:21.696Z,99.90
2018-02-08T11:59:50.686Z,99.90
2018-02-08T12:02:19.700Z,99.90
2018-02-08T12:04:48.693Z,99.90
2018-02-08T12:07:18.049Z,99.90
2018-02-08T12:09:47.041Z,99.90
2018-02-08T12:12:16.833Z,99.90
2018-02-08T12:14:46.583Z,99.90
2018-02-08T12:17:15.528Z,99.90
2018-02-08T12:19:44.499Z,99.90
2018-02-08T12:22:13.479Z,99.90
2018-02-08T12:24:43.651Z,99.90
2018-02-08T12:27:13.207Z,99.90
2018-02-08T12:29:42.207Z,99.90
2018-02-08T12:32:11.156Z,99.90
2018-02-08T12:34:40.143Z,99.90
2018-02-08T12:37:09.472Z,99.90
2018-02-08T12:39:38.628Z,97.30
2018-02-08T12:42:07.542Z,98.80
2018-02-08T12:44:36.517Z,91.20
2018-02-08T12:47:07.355Z,79.60
2018-02-08T12:49:36.345Z,80.20
2018-02-08T12:52:06.041Z,79.90
2018-02-08T12:54:35.384Z,67.90
2018-02-08T12:57:04.403Z,58.10
2018-02-08T12:59:33.500Z,58.50
2018-02-08T13:02:02.903Z,55.50
2018-02-08T13:04:31.948Z,54.00
2018-02-08T13:07:00.894Z,55.00
2018-02-08T13:09:29.882Z,50.20
2018-02-08T13:11:58.926Z,46.30
2018-02-08T13:14:27.946Z,48.70
2018-02-08T13:16:57.023Z,50.10
2018-02-08T13:19:26.103Z,52.80
2018-02-08T13:21:55.454Z,52.30
2018-02-08T13:24:24.861Z,47.20
2018-02-08T13:26:54.196Z,47.40
2018-02-08T13:29:23.962Z,48.80
2018-02-08T13:31:53.464Z,49.90
2018-02-08T13:34:23.208Z,52.40
2018-02-08T13:36:52.624Z,53.10
2018-02-08T13:39:41.152Z,54.20
2018-02-08T13:42:10.129Z,54.30
2018-02-08T13:44:39.822Z,50.90
2018-02-08T13:47:09.301Z,50.90
2018-02-08T13:49:40.806Z,50.20
2018-02-08T13:52:30.572Z,49.70
2018-02-08T13:55:15.182Z,48.90
2018-02-08T13:58:01.354Z,46.70
2018-02-08T14:00:36.349Z,47.80
2018-02-08T14:03:05.285Z,47.60
2018-02-08T14:05:35.032Z,48.40
2018-02-08T14:08:04.798Z,46.70
2018-02-08T14:10:34.722Z,44.60
2018-02-08T14:13:03.714Z,42.70
2018-02-08T14:15:33.452Z,43.50
2018-02-08T14:18:02.436Z,44.20
2018-02-08T14:20:31.476Z,43.10
2018-02-08T14:23:00.603Z,43.00
2018-02-08T14:25:30.376Z,45.20
2018-02-08T14:27:59.424Z,42.50
2018-02-08T14:30:29.184Z,42.40
2018-02-08T14:32:58.933Z,41.80
2018-02-08T14:35:28.707Z,42.00
2018-02-08T14:37:57.679Z,41.80
2018-02-08T14:40:26.745Z,42.40
2018-02-08T14:42:55.789Z,41.60
2018-02-08T14:45:24.984Z,40.60
2018-02-08T14:47:54.692Z,42.90
2018-02-08T14:50:23.696Z,44.70
2018-02-08T14:52:52.648Z,46.10
2018-02-08T14:55:21.632Z,46.60
2018-02-08T14:57:50.639Z,48.50
2018-02-08T15:00:19.609Z,47.90
2018-02-08T15:02:48.557Z,48.00
2018-02-08T15:05:19.106Z,48.30
2018-02-08T15:07:48.903Z,48.00
2018-02-08T15:10:18.818Z,46.50
2018-02-08T15:12:47.800Z,45.60
2018-02-08T15:15:16.781Z,46.40
2018-02-08T15:17:46.128Z,46.20
2018-02-08T15:20:15.701Z,47.70
2018-02-08T15:22:44.644Z,50.50
2018-02-08T15:25:14.965Z,52.80
2018-02-08T15:27:44.329Z,55.90
2018-02-08T15:30:13.343Z,65.00
2018-02-08T15:32:42.666Z,89.80
2018-02-08T15:35:11.987Z,99.90
2018-02-08T15:37:41.726Z,99.90
2018-02-08T15:40:10.784Z,99.90
2018-02-08T15:42:39.831Z,99.90
2018-02-08T15:45:09.656Z,99.90
2018-02-08T15:47:38.633Z,99.90
2018-02-08T15:50:07.578Z,99.90
2018-02-08T15:52:36.724Z,99.90
2018-02-08T15:55:05.726Z,99.90
2018-02-08T15:57:35.453Z,99.90
2018-02-08T16:00:06.264Z,99.90
2018-02-08T16:02:36.017Z,99.90
2018-02-08T16:05:05.013Z,99.90
2018-02-08T16:07:37.732Z,99.90
2018-02-08T16:10:06.717Z,99.90
2018-02-08T16:12:35.725Z,99.90
2018-02-08T16:15:04.692Z,99.90
2018-02-08T16:17:35.190Z,99.90
2018-02-08T16:20:04.150Z,99.90
2018-02-08T16:22:33.251Z,99.90
2018-02-08T16:25:02.214Z,99.90
2018-02-08T16:27:31.217Z,99.90
2018-02-08T16:30:00.998Z,99.90
2018-02-08T16:32:29.979Z,99.90
2018-02-08T16:34:59.710Z,99.90
2018-02-08T16:37:28.694Z,99.90
2018-02-08T16:39:57.668Z,99.90
2018-02-08T16:42:26.652Z,99.90
2018-02-08T16:44:55.637Z,99.90
2018-02-08T16:47:24.633Z,99.90
2018-02-08T16:49:54.949Z,99.90
2018-02-08T16:52:23.924Z,99.90
2018-02-08T16:54:53.402Z,99.90
2018-02-08T16:57:23.168Z,99.90
2018-02-08T16:59:52.537Z,99.90
2018-02-08T17:02:21.683Z,99.90
2018-02-08T17:04:51.386Z,99.90
2018-02-08T17:07:20.369Z,99.90
2018-02-08T17:09:50.134Z,99.90
2018-02-08T17:12:19.854Z,99.90
2018-02-08T17:14:48.906Z,99.90
2018-02-08T17:17:18.654Z,99.90
2018-02-08T17:19:47.755Z,99.90
2018-02-08T17:22:16.707Z,99.90
2018-02-08T17:24:45.754Z,99.90
2018-02-08T17:27:14.745Z,99.90
2018-02-08T17:29:43.963Z,99.90
2018-02-08T17:32:13.176Z,99.90
2018-02-08T17:34:42.137Z,99.90
2018-02-08T17:37:11.118Z,99.90
2018-02-08T17:39:40.525Z,99.90
2018-02-08T17:42:09.501Z,99.90
2018-02-08T17:44:38.492Z,99.90
2018-02-08T17:47:08.236Z,99.90
2018-02-08T17:49:37.243Z,99.90
2018-02-08T17:52:06.635Z,99.90
2018-02-08T17:54:36.722Z,99.90
2018-02-08T17:57:06.580Z,99.90
2018-02-08T17:59:35.585Z,99.90
2018-02-08T18:02:04.575Z,99.90
2018-02-08T18:04:34.786Z,99.90
2018-02-08T18:07:04.590Z,99.90
2018-02-08T18:09:33.566Z,99.90
2018-02-08T18:12:02.594Z,99.90
2018-02-08T18:14:31.585Z,99.90
2018-02-08T18:17:00.990Z,99.90
2018-02-08T18:19:31.053Z,99.90
2018-02-08T18:22:00.365Z,99.90
2018-02-08T18:24:29.512Z,99.90
2018-02-08T18:26:58.487Z,99.90
2018-02-08T18:29:27.881Z,99.90
2018-02-08T18:31:57.274Z,99.90
2018-02-08T18:34:26.241Z,99.90
2018-02-08T18:36:56.036Z,99.90
2018-02-08T18:39:25.068Z,99.90
2018-02-08T18:41:54.060Z,99.90
2018-02-08T18:44:23.061Z,99.90
2018-02-08T18:46:52.919Z,99.90
2018-02-08T18:49:22.669Z,99.90
2018-02-08T18:51:52.861Z,99.90
2018-02-08T18:54:22.586Z,99.90
2018-02-08T18:56:51.602Z,99.90
2018-02-08T18:59:20.994Z,99.90
2018-02-08T19:01:50.011Z,99.90
2018-02-08T19:04:21.166Z,99.90
2018-02-08T19:06:50.214Z,99.90
2018-02-08T19:09:20.471Z,99.90
2018-02-08T19:11:50.246Z,99.90
2018-02-08T19:14:19.277Z,99.90
2018-02-08T19:16:48.701Z,99.90
2018-02-08T19:19:17.735Z,99.90
2018-02-08T19:21:46.762Z,99.90
2018-02-08T19:24:15.764Z,99.90
2018-02-08T19:26:45.541Z,99.90
2018-02-08T19:29:14.515Z,99.90
2018-02-08T19:31:43.566Z,99.90
2018-02-08T19:34:12.588Z,99.90
2018-02-08T19:36:42.499Z,99.90
2018-02-08T19:39:12.274Z,99.90
2018-02-08T19:41:41.325Z,99.90
2018-02-08T19:44:11.693Z,99.90
2018-02-08T19:46:41.540Z,99.90
2018-02-08T19:49:10.960Z,99.90
2018-02-08T19:51:40.412Z,99.90
2018-02-08T19:54:09.420Z,99.90
2018-02-08T19:56:39.970Z,99.90
2018-02-08T19:59:09.749Z,99.90
2018-02-08T20:01:39.422Z,99.90
2018-02-08T20:04:08.521Z,99.90
2018-02-08T20:06:37.550Z,99.90
2018-02-08T20:09:07.942Z,99.90
2018-02-08T20:11:38.106Z,99.90
2018-02-08T20:14:14.412Z,99.90
2018-02-08T20:16:43.464Z,99.90
2018-02-08T20:19:13.188Z,99.90
2018-02-08T20:21:42.823Z,99.90
2018-02-08T20:24:12.792Z,99.90
2018-02-08T20:26:41.829Z,99.90
2018-02-08T20:29:12.137Z,99.90
2018-02-08T20:31:41.958Z,99.90
2018-02-08T20:34:11.040Z,99.90
2018-02-08T20:36:40.803Z,99.90
2018-02-08T20:39:09.838Z,99.90
2018-02-08T20:41:39.201Z,99.90
2018-02-08T20:44:08.421Z,99.90
2018-02-08T20:46:37.414Z,99.90
2018-02-08T20:49:06.408Z,99.90
2018-02-08T20:51:37.088Z,99.90
2018-02-08T20:54:06.676Z,99.90
2018-02-08T20:56:35.725Z,99.90
2018-02-08T20:59:04.702Z,99.90
2018-02-08T21:01:34.470Z,99.90
2018-02-08T21:04:03.924Z,99.90
2018-02-08T21:06:33.679Z,99.90
2018-02-08T21:09:03.073Z,99.90
2018-02-08T21:11:33.596Z,99.90
2018-02-08T21:14:03.362Z,99.90
2018-02-08T21:16:32.331Z,99.90
2018-02-08T21:19:01.318Z,99.90
2018-02-08T21:21:30.315Z,99.90
2018-02-08T21:24:00.849Z,99.90
2018-02-08T21:26:29.834Z,99.90
2018-02-08T21:28:58.811Z,99.90
2018-02-08T21:31:27.958Z,99.90
2018-02-08T21:33:56.948Z,99.90
2018-02-08T21:36:25.959Z,99.90
2018-02-08T21:38:54.977Z,99.90
2018-02-08T21:41:24.758Z,99.90
2018-02-08T21:43:53.748Z,99.90
2018-02-08T21:46:22.798Z,99.90
2018-02-08T21:48:52.277Z,99.90
2018-02-08T21:51:21.245Z,99.90
2018-02-08T21:53:50.254Z,99.90
2018-02-08T21:56:20.062Z,99.90
2018-02-08T21:58:49.237Z,99.90
2018-02-08T22:01:19.043Z,99.90
2018-02-08T22:03:48.585Z,99.90
2018-02-08T22:06:17.560Z,99.90
2018-02-08T22:08:46.569Z,99.90
2018-02-08T22:11:21.308Z,99.90
2018-02-08T22:13:53.955Z,99.90
2018-02-08T22:16:22.908Z,99.90
2018-02-08T22:18:51.907Z,99.90
2018-02-08T22:21:21.025Z,99.90
2018-02-08T22:23:50.005Z,99.90
2018-02-08T22:26:19.030Z,99.90
2018-02-08T22:28:48.023Z,99.90
2018-02-08T22:31:17.380Z,99.90
2018-02-08T22:33:46.365Z,99.90
2018-02-08T22:36:15.735Z,99.90
2018-02-08T22:38:44.697Z,99.90
2018-02-08T22:41:13.713Z,99.90
2018-02-08T22:43:43.425Z,99.90
2018-02-08T22:46:13.234Z,99.90
2018-02-08T22:48:42.189Z,99.90
2018-02-08T22:51:11.162Z,99.90
2018-02-08T22:53:40.126Z,99.90
2018-02-08T22:56:09.133Z,99.90
2018-02-08T22:58:38.115Z,99.90
2018-02-08T23:01:07.117Z,99.90
2018-02-08T23:03:36.484Z,99.90
2018-02-08T23:06:06.229Z,99.90
2018-02-08T23:08:35.189Z,99.90
2018-02-08T23:11:05.024Z,99.90
2018-02-08T23:13:33.997Z,99.90
2018-02-08T23:16:03.811Z,99.90
2018-02-08T23:18:32.808Z,99.90
2018-02-08T23:21:02.198Z,99.90
2018-02-08T23:23:31.921Z,99.90
2018-02-08T23:26:00.912Z,99.90
2018-02-08T23:28:30.236Z,99.90
2018-02-08T23:30:59.223Z,99.90
2018-02-08T23:33:28.243Z,99.90
2018-02-08T23:35:57.595Z,99.90
2018-02-08T23:38:26.580Z,99.90
2018-02-08T23:40:56.439Z,99.90
2018-02-08T23:43:25.405Z,99.90
2018-02-08T23:45:55.142Z,99.90
2018-02-08T23:48:24.190Z,99.90
2018-02-08T23:50:53.156Z,99.90
2018-02-08T23:53:22.142Z,99.90
2018-02-08T23:55:51.500Z,99.90
2018-02-08T23:58:20.478Z,99.90
